Time;durP1;ratioP1;P1;durP2;ratioP2;P2;SDS_P1;SDS_P2;PMS_P1;PMS_P2;Temp;Humidity;BMP_temperature;BMP_pressure;BME280_temperature;BME280_humidity;BME280_pressure;Samples;Min_cycle;Max_cycle;Signal;HPM_P1;HPM_P2
2023/10/21 00:01:58;;;;;;;2.07;0.73;;;15.10;99.90;;;;;;4987932;28;20089;-73
2023/10/21 00:04:23;;;;;;;3.03;0.30;;;15.20;99.90;;;;;;4990565;28;20285;-72
2023/10/21 00:06:49;;;;;;;2.00;0.32;;;15.20;99.90;;;;;;4991468;28;20022;-72
2023/10/21 00:09:15;;;;;;;2.10;0.53;;;15.20;99.90;;;;;;4990512;28;20042;-73
2023/10/21 00:11:40;;;;;;;1.50;0.40;;;15.20;99.90;;;;;;4991513;28;21142;-73
2023/10/21 00:14:06;;;;;;;0.40;0.40;;;15.20;99.90;;;;;;4996677;28;20036;-73
2023/10/21 00:16:32;;;;;;;3.30;0.40;;;15.10;99.90;;;;;;5023425;28;20047;-74
2023/10/21 00:18:58;;;;;;;3.88;0.50;;;15.10;99.90;;;;;;4993057;28;20458;-73
2023/10/21 00:21:24;;;;;;;1.27;0.40;;;15.10;99.90;;;;;;4991266;28;20057;-73
2023/10/21 00:23:50;;;;;;;1.03;0.40;;;15.10;99.90;;;;;;4993430;28;20116;-72
2023/10/21 00:26:16;;;;;;;3.03;0.55;;;15.00;99.90;;;;;;4994062;28;20292;-72
2023/10/21 00:28:42;;;;;;;;;;;15.00;99.90;;;;;;4991544;28;20038;-73
2023/10/21 00:31:07;;;;;;;1.55;0.40;;;15.00;99.90;;;;;;4990610;28;19919;-73
2023/10/21 00:33:33;;;;;;;1.80;0.33;;;15.00;99.90;;;;;;4990743;28;20506;-72
2023/10/21 00:35:59;;;;;;;0.40;0.40;;;15.00;99.90;;;;;;4990642;28;20498;-72
2023/10/21 00:38:25;;;;;;;0.73;0.40;;;14.90;99.90;;;;;;4990344;28;20097;-73
2023/10/21 00:40:56;;;;;;;0.55;0.40;;;14.90;99.90;;;;;;4992464;28;20030;-72
2023/10/21 00:43:42;;;;;;;4.22;0.40;;;14.90;99.90;;;;;;4991950;28;20156;-72
2023/10/21 00:46:15;;;;;;;2.95;0.50;;;14.90;99.90;;;;;;4992112;28;20038;-72
2023/10/21 00:48:41;;;;;;;1.27;0.65;;;14.90;99.90;;;;;;4992454;28;20034;-73
2023/10/21 00:51:09;;;;;;;0.55;0.32;;;14.90;99.90;;;;;;4992330;28;20030;-73
2023/10/21 00:53:35;;;;;;;0.68;0.40;;;14.90;99.90;;;;;;4990524;28;20049;-72
2023/10/21 00:56:01;;;;;;;1.52;0.30;;;14.90;99.90;;;;;;4993260;28;20476;-72
2023/10/21 00:58:30;;;;;;;1.13;0.40;;;15.00;99.90;;;;;;4996320;28;20045;-72
2023/10/21 01:01:01;;;;;;;0.43;0.30;;;15.00;99.90;;;;;;4990070;28;20031;-72
2023/10/21 01:03:29;;;;;;;0.93;0.30;;;14.90;99.90;;;;;;4991525;28;20077;-72
2023/10/21 01:05:54;;;;;;;3.90;0.40;;;14.90;99.90;;;;;;4991771;28;20030;-73
2023/10/21 01:08:20;;;;;;;0.77;0.23;;;14.80;99.90;;;;;;4992702;28;20033;-73
2023/10/21 01:10:47;;;;;;;2.27;0.23;;;14.80;99.90;;;;;;4993409;28;20045;-73
2023/10/21 01:13:12;;;;;;;;;;;14.70;99.90;;;;;;4990346;28;20293;-73
2023/10/21 01:15:38;;;;;;;1.08;0.35;;;14.80;99.90;;;;;;4992100;28;19913;-73
2023/10/21 01:18:06;;;;;;;0.83;0.30;;;14.80;99.90;;;;;;4990796;28;20042;-73
2023/10/21 01:20:32;;;;;;;4.05;0.40;;;14.70;99.90;;;;;;4988947;28;20026;-73
2023/10/21 01:22:58;;;;;;;1.27;0.32;;;14.80;99.90;;;;;;4992561;28;20026;-73
2023/10/21 01:25:24;;;;;;;1.42;0.40;;;14.70;99.90;;;;;;4989037;28;20038;-73
2023/10/21 01:27:56;;;;;;;1.13;0.30;;;14.80;99.90;;;;;;4990810;28;20057;-73
2023/10/21 01:30:22;;;;;;;0.28;0.28;;;14.70;99.90;;;;;;4989735;28;20077;-73
2023/10/21 01:32:48;;;;;;;5.22;0.30;;;14.80;99.90;;;;;;4989156;28;20034;-73
2023/10/21 01:35:17;;;;;;;0.57;0.20;;;14.80;99.90;;;;;;4989383;28;20038;-73
2023/10/21 01:37:44;;;;;;;0.82;0.30;;;14.80;99.90;;;;;;4989558;28;20046;-72
2023/10/21 01:40:12;;;;;;;;;;;14.80;99.90;;;;;;4991454;28;20520;-73
2023/10/21 01:42:39;;;;;;;1.60;0.47;;;14.90;99.90;;;;;;4988334;28;20112;-73
2023/10/21 01:45:05;;;;;;;1.27;0.30;;;14.90;99.90;;;;;;4989041;28;20029;-73
2023/10/21 01:47:31;;;;;;;0.38;0.30;;;14.90;99.90;;;;;;4990020;28;20437;-73
2023/10/21 01:49:58;;;;;;;0.30;0.30;;;15.00;99.90;;;;;;4989239;28;20022;-73
2023/10/21 01:52:24;;;;;;;3.08;0.55;;;15.10;99.90;;;;;;4988935;28;20034;-73
2023/10/21 01:54:51;;;;;;;1.02;0.30;;;15.10;99.90;;;;;;4988883;28;20117;-73
2023/10/21 01:57:16;;;;;;;;;;;15.00;99.90;;;;;;4993310;28;20104;-73
2023/10/21 01:59:43;;;;;;;1.17;0.45;;;15.10;99.90;;;;;;4993175;28;19918;-72
2023/10/21 02:02:09;;;;;;;2.65;0.98;;;15.00;99.90;;;;;;4995852;28;20462;-73
2023/10/21 02:04:35;;;;;;;0.57;0.40;;;15.00;99.90;;;;;;4991647;28;20042;-73
2023/10/21 02:07:00;;;;;;;2.70;0.40;;;15.00;99.90;;;;;;4991439;28;20121;-73
2023/10/21 02:09:26;;;;;;;1.03;0.40;;;15.00;99.90;;;;;;4989471;28;20468;-73
2023/10/21 02:11:55;;;;;;;1.20;0.30;;;15.00;99.90;;;;;;4992841;28;20042;-72
2023/10/21 02:14:22;;;;;;;1.33;0.20;;;15.00;99.90;;;;;;4982042;28;20112;-73
2023/10/21 02:16:49;;;;;;;2.95;0.40;;;15.00;99.90;;;;;;4989742;28;20355;-73
2023/10/21 02:19:15;;;;;;;2.85;0.50;;;14.90;99.90;;;;;;4989193;28;20033;-73
2023/10/21 02:21:41;;;;;;;2.93;0.60;;;14.90;99.90;;;;;;4986827;28;20022;-72
2023/10/21 02:24:07;;;;;;;0.30;0.30;;;14.90;99.90;;;;;;4986559;28;20138;-72
2023/10/21 02:26:32;;;;;;;6.93;0.38;;;15.00;99.90;;;;;;4986509;28;20538;-72
2023/10/21 02:28:58;;;;;;;2.60;0.50;;;14.90;99.90;;;;;;4986686;28;20062;-73
2023/10/21 02:31:23;;;;;;;0.50;0.50;;;14.90;99.90;;;;;;4986693;28;20530;-73
2023/10/21 02:33:49;;;;;;;2.70;0.30;;;14.90;99.90;;;;;;4987286;28;20030;-72
2023/10/21 02:36:15;;;;;;;1.33;0.40;;;14.80;99.90;;;;;;4986813;28;20097;-73
2023/10/21 02:38:41;;;;;;;1.37;0.40;;;14.90;99.90;;;;;;4986941;28;20026;-73
2023/10/21 02:41:07;;;;;;;1.08;0.60;;;14.90;99.90;;;;;;4987026;28;20030;-73
2023/10/21 02:43:33;;;;;;;1.33;0.38;;;14.90;99.90;;;;;;4987085;28;20038;-73
2023/10/21 02:46:12;;;;;;;1.10;0.50;;;14.80;99.90;;;;;;4986541;28;20031;-73
2023/10/21 02:48:39;;;;;;;6.95;0.70;;;14.80;99.90;;;;;;4986334;28;20121;-73
2023/10/21 02:51:15;;;;;;;3.30;0.50;;;14.80;99.90;;;;;;4987813;28;20026;-73
2023/10/21 02:53:41;;;;;;;0.82;0.20;;;14.80;99.90;;;;;;4986242;28;20282;-73
2023/10/21 02:56:07;;;;;;;2.67;0.40;;;14.70;99.90;;;;;;4986521;28;20503;-72
2023/10/21 02:58:34;;;;;;;1.17;0.30;;;14.70;99.90;;;;;;4986478;28;20494;-73
2023/10/21 03:01:20;;;;;;;0.52;0.30;;;14.60;99.90;;;;;;4982874;28;20030;-72
2023/10/21 03:03:47;;;;;;;0.43;0.25;;;14.70;99.90;;;;;;4986745;28;20030;-73
2023/10/21 03:06:14;;;;;;;1.38;0.50;;;14.70;99.90;;;;;;4986158;28;20109;-72
2023/10/21 03:08:40;;;;;;;1.23;0.30;;;14.70;99.90;;;;;;4986539;28;20088;-72
2023/10/21 03:11:07;;;;;;;2.67;0.50;;;14.70;99.90;;;;;;4986372;28;20030;-73
2023/10/21 03:13:37;;;;;;;1.02;0.38;;;14.80;99.90;;;;;;4987745;28;20492;-73
2023/10/21 03:16:06;;;;;;;1.15;0.28;;;14.70;99.90;;;;;;4986556;28;20026;-73
2023/10/21 03:18:33;;;;;;;2.67;0.30;;;14.70;99.90;;;;;;4986545;28;20042;-73
2023/10/21 03:20:59;;;;;;;6.03;0.35;;;14.70;99.90;;;;;;4986644;28;20018;-74
2023/10/21 03:23:25;;;;;;;5.17;0.47;;;14.70;99.90;;;;;;4987099;28;20545;-73
2023/10/21 03:25:58;;;;;;;0.97;0.30;;;14.70;99.90;;;;;;4986427;28;20057;-73
2023/10/21 03:28:26;;;;;;;4.35;0.47;;;14.60;99.90;;;;;;4986201;28;20026;-73
2023/10/21 03:30:55;;;;;;;3.00;0.30;;;14.60;99.90;;;;;;4987269;28;20038;-74
2023/10/21 03:33:21;;;;;;;2.92;0.30;;;14.60;99.90;;;;;;4986544;28;20030;-73
2023/10/21 03:35:54;;;;;;;;;;;14.60;99.90;;;;;;4982295;28;20051;-73
2023/10/21 03:38:21;;;;;;;2.50;0.43;;;14.60;99.90;;;;;;4987741;28;19922;-73
2023/10/21 03:41:07;;;;;;;4.13;0.80;;;14.50;99.90;;;;;;4986524;28;20027;-74
2023/10/21 03:43:34;;;;;;;1.02;0.38;;;14.50;99.90;;;;;;4988256;28;20037;-73
2023/10/21 03:46:04;;;;;;;;;;;14.50;99.90;;;;;;4990149;28;20023;-72
2023/10/21 03:48:30;;;;;;;2.72;0.50;;;14.50;99.90;;;;;;4989174;28;20028;-73
2023/10/21 03:51:05;;;;;;;4.78;0.40;;;14.50;99.90;;;;;;4990183;28;20030;-72
2023/10/21 03:53:32;;;;;;;3.17;0.60;;;14.40;99.90;;;;;;4989614;28;20061;-72
2023/10/21 03:55:58;;;;;;;2.88;0.40;;;14.40;99.90;;;;;;4990501;28;20022;-73
2023/10/21 03:58:24;;;;;;;1.88;0.60;;;14.40;99.90;;;;;;4989213;28;20392;-73
2023/10/21 04:00:50;;;;;;;4.68;0.50;;;14.50;99.90;;;;;;4990171;28;20522;-72
2023/10/21 04:03:16;;;;;;;1.67;0.50;;;14.50;99.90;;;;;;4990384;28;20030;-72
2023/10/21 04:05:42;;;;;;;0.68;0.60;;;14.50;99.90;;;;;;4989389;28;20114;-72
2023/10/21 04:08:07;;;;;;;3.17;0.50;;;14.40;99.90;;;;;;4989602;28;20577;-73
2023/10/21 04:10:33;;;;;;;10.27;0.63;;;14.30;99.90;;;;;;4990138;28;20061;-73
2023/10/21 04:13:01;;;;;;;2.00;0.50;;;14.30;99.90;;;;;;4989661;28;20057;-73
2023/10/21 04:15:26;;;;;;;2.40;0.55;;;14.20;99.90;;;;;;4989893;28;20077;-73
2023/10/21 04:17:52;;;;;;;4.22;0.40;;;14.30;99.90;;;;;;4990135;28;20042;-73
2023/10/21 04:20:18;;;;;;;8.40;0.87;;;14.30;99.90;;;;;;4990399;28;20034;-73
2023/10/21 04:22:44;;;;;;;10.10;0.97;;;14.20;99.90;;;;;;4989265;28;20057;-72
2023/10/21 04:25:11;;;;;;;8.70;0.90;;;14.30;99.90;;;;;;4987833;28;20025;-72
2023/10/21 04:27:37;;;;;;;3.05;1.02;;;14.20;99.90;;;;;;4988814;28;20491;-73
2023/10/21 04:30:03;;;;;;;3.83;1.45;;;14.20;99.90;;;;;;4988980;28;20054;-72
2023/10/21 04:32:29;;;;;;;3.65;1.00;;;14.20;99.90;;;;;;4984844;28;20033;-73
2023/10/21 04:34:56;;;;;;;4.13;1.05;;;14.10;99.90;;;;;;4989869;28;20030;-73
2023/10/21 04:37:21;;;;;;;1.38;0.77;;;14.20;99.90;;;;;;4988902;28;20069;-73
2023/10/21 04:39:47;;;;;;;5.17;1.20;;;14.20;99.90;;;;;;4989022;28;20027;-73
2023/10/21 04:42:13;;;;;;;4.57;0.57;;;14.20;99.90;;;;;;4990721;28;20113;-72
2023/10/21 04:44:38;;;;;;;2.30;0.63;;;14.20;99.90;;;;;;4988636;28;20022;-73
2023/10/21 04:47:04;;;;;;;6.83;0.80;;;14.20;99.90;;;;;;4988940;28;20110;-73
2023/10/21 04:49:30;;;;;;;4.60;0.93;;;14.20;99.90;;;;;;4989796;28;20397;-73
2023/10/21 04:51:56;;;;;;;5.87;0.83;;;14.10;99.90;;;;;;4988949;28;20285;-74
2023/10/21 04:54:22;;;;;;;3.03;0.70;;;14.10;99.90;;;;;;4986956;28;20030;-73
2023/10/21 04:56:48;;;;;;;6.10;1.43;;;14.10;99.90;;;;;;4988045;28;20467;-73
2023/10/21 04:59:14;;;;;;;3.38;0.88;;;14.10;99.90;;;;;;4988700;28;20113;-72
2023/10/21 05:01:40;;;;;;;0.65;0.60;;;14.10;99.90;;;;;;4988187;28;20114;-71
2023/10/21 05:04:06;;;;;;;6.57;0.70;;;14.10;99.90;;;;;;4988239;28;20062;-72
2023/10/21 05:06:31;;;;;;;11.73;0.83;;;14.00;99.90;;;;;;4988663;28;20057;-73
2023/10/21 05:08:58;;;;;;;3.13;0.90;;;14.00;99.90;;;;;;4988250;28;20090;-72
2023/10/21 05:11:23;;;;;;;2.25;0.60;;;14.00;99.90;;;;;;4988952;28;20072;-73
2023/10/21 05:13:49;;;;;;;2.47;0.68;;;14.10;99.90;;;;;;4988512;28;20074;-72
2023/10/21 05:16:15;;;;;;;1.53;0.70;;;14.00;99.90;;;;;;4988568;28;20027;-71
2023/10/21 05:18:40;;;;;;;9.23;0.83;;;14.00;99.90;;;;;;4988610;28;20086;-71
2023/10/21 05:21:08;;;;;;;2.37;0.80;;;14.00;99.90;;;;;;4987782;28;20462;-72
2023/10/21 05:23:34;;;;;;;2.17;0.68;;;13.90;99.90;;;;;;4988228;28;20030;-73
2023/10/21 05:26:00;;;;;;;4.68;0.73;;;14.00;99.90;;;;;;4986971;28;20065;-72
2023/10/21 05:28:26;;;;;;;2.75;1.00;;;14.00;99.90;;;;;;5019298;28;20572;-72
2023/10/21 05:30:52;;;;;;;0.87;0.53;;;14.00;99.90;;;;;;4987318;28;20125;-75
2023/10/21 05:33:17;;;;;;;4.43;0.60;;;14.00;99.90;;;;;;4986277;28;20023;-72
2023/10/21 05:35:43;;;;;;;2.07;0.70;;;14.00;99.90;;;;;;4987804;28;20742;-71
2023/10/21 05:38:08;;;;;;;6.20;0.70;;;14.00;99.90;;;;;;4987504;28;20042;-71
2023/10/21 05:40:35;;;;;;;3.43;0.83;;;14.00;99.90;;;;;;5019223;28;20277;-71
2023/10/21 05:43:01;;;;;;;8.13;0.73;;;13.90;99.90;;;;;;4987218;28;20069;-72
2023/10/21 05:45:26;;;;;;;6.68;0.60;;;13.90;99.90;;;;;;4987150;28;20061;-72
2023/10/21 05:47:53;;;;;;;4.90;0.87;;;13.90;99.90;;;;;;4983208;28;20628;-71
2023/10/21 05:50:20;;;;;;;;;;;14.00;99.90;;;;;;4989935;28;20030;-69
2023/10/21 05:52:46;;;;;;;8.65;0.60;;;14.00;99.90;;;;;;4986039;28;19920;-70
2023/10/21 05:55:12;;;;;;;1.75;0.90;;;14.00;99.90;;;;;;4987935;28;20046;-71
2023/10/21 05:57:38;;;;;;;4.67;0.70;;;14.00;99.90;;;;;;4987821;28;20049;-69
2023/10/21 06:00:07;;;;;;;3.57;1.07;;;14.10;99.90;;;;;;4987485;28;20026;-72
2023/10/21 06:02:32;;;;;;;10.35;1.00;;;14.10;99.90;;;;;;4987050;28;20092;-70
2023/10/21 06:04:58;;;;;;;5.17;1.43;;;14.00;99.90;;;;;;4985095;28;20478;-71
2023/10/21 06:07:24;;;;;;;5.73;1.13;;;13.90;99.90;;;;;;4986867;28;20049;-71
2023/10/21 06:09:49;;;;;;;2.63;0.80;;;13.80;99.90;;;;;;4986708;28;20565;-71
2023/10/21 06:12:15;;;;;;;4.70;0.80;;;13.90;99.90;;;;;;4987332;28;20049;-70
2023/10/21 06:14:41;;;;;;;1.03;0.80;;;13.90;99.90;;;;;;4987024;28;20038;-74
2023/10/21 06:17:06;;;;;;;4.17;1.13;;;13.90;99.90;;;;;;4986018;28;20050;-71
2023/10/21 06:19:32;;;;;;;3.23;0.90;;;13.90;99.90;;;;;;4987823;28;20028;-71
2023/10/21 06:21:58;;;;;;;4.85;0.57;;;13.90;99.90;;;;;;4985843;28;20037;-69
2023/10/21 06:24:24;;;;;;;9.43;1.27;;;13.90;99.90;;;;;;4987602;28;20026;-72
2023/10/21 06:26:50;;;;;;;2.90;0.68;;;13.90;99.90;;;;;;4985733;28;20266;-73
2023/10/21 06:29:16;;;;;;;4.85;1.27;;;13.90;99.90;;;;;;4986294;28;20475;-71
2023/10/21 06:31:41;;;;;;;3.10;1.05;;;13.90;99.90;;;;;;4986371;28;20538;-71
2023/10/21 06:34:08;;;;;;;6.83;0.93;;;13.80;99.90;;;;;;4986086;28;20037;-69
2023/10/21 06:36:34;;;;;;;1.80;0.70;;;13.80;99.90;;;;;;4991617;28;20398;-71
2023/10/21 06:39:00;;;;;;;6.03;0.98;;;14.00;99.90;;;;;;4988664;28;20045;-68
2023/10/21 06:41:25;;;;;;;5.45;0.90;;;13.90;99.90;;;;;;4986941;28;20040;-69
2023/10/21 06:43:51;;;;;;;7.33;0.90;;;13.90;99.90;;;;;;4985158;28;20113;-70
2023/10/21 06:46:17;;;;;;;4.47;1.20;;;13.80;99.90;;;;;;4983874;28;20669;-69
2023/10/21 06:48:43;;;;;;;10.00;1.00;;;13.70;99.90;;;;;;4986111;28;20030;-71
2023/10/21 06:51:09;;;;;;;30.33;1.73;;;13.70;99.90;;;;;;4985593;28;20081;-72
2023/10/21 06:53:35;;;;;;;10.83;1.53;;;13.70;99.90;;;;;;4986408;28;20362;-71
2023/10/21 06:56:00;;;;;;;10.10;1.00;;;13.90;99.90;;;;;;4976938;28;20132;-67
2023/10/21 06:58:27;;;;;;;7.30;1.23;;;14.00;99.90;;;;;;4982457;28;20048;-67
2023/10/21 07:00:52;;;;;;;4.18;0.90;;;14.00;99.90;;;;;;4985548;28;20042;-67
2023/10/21 07:03:18;;;;;;;6.13;1.23;;;14.10;99.90;;;;;;4985993;28;20451;-66
2023/10/21 07:05:45;;;;;;;5.43;1.90;;;14.10;99.90;;;;;;4986886;28;20582;-68
2023/10/21 07:08:11;;;;;;;11.55;2.35;;;14.20;99.90;;;;;;4984734;28;20026;-67
2023/10/21 07:10:38;;;;;;;3.97;1.00;;;14.20;99.90;;;;;;4986335;28;20121;-68
2023/10/21 07:13:04;;;;;;;4.55;1.10;;;14.20;99.90;;;;;;4986633;28;20026;-69
2023/10/21 07:15:31;;;;;;;12.10;1.40;;;14.20;99.90;;;;;;4981143;28;20031;-69
2023/10/21 07:17:57;;;;;;;6.85;1.48;;;14.10;99.90;;;;;;4985986;28;20407;-69
2023/10/21 07:20:23;;;;;;;;;;;14.20;99.90;;;;;;4990269;28;20081;-69
2023/10/21 07:22:49;;;;;;;1.50;0.70;;;14.20;99.90;;;;;;4989339;28;20531;-68
2023/10/21 07:25:18;;;;;;;9.27;1.67;;;14.20;99.90;;;;;;4988712;28;20091;-69
2023/10/21 07:27:44;;;;;;;5.75;1.20;;;14.30;99.90;;;;;;4989802;28;20033;-67
2023/10/21 07:30:09;;;;;;;6.88;1.35;;;14.40;99.90;;;;;;4989890;28;20490;-66
2023/10/21 07:32:35;;;;;;;13.30;2.30;;;14.50;99.90;;;;;;4989398;28;20085;-67
2023/10/21 07:35:01;;;;;;;4.10;1.33;;;14.60;99.90;;;;;;4988973;28;20026;-67
2023/10/21 07:37:26;;;;;;;11.50;1.77;;;14.50;99.90;;;;;;4990013;28;20045;-68
2023/10/21 07:39:52;;;;;;;6.25;1.08;;;14.60;99.90;;;;;;4989887;28;20031;-67
2023/10/21 07:42:19;;;;;;;6.05;1.90;;;14.70;99.90;;;;;;4989927;28;20042;-67
2023/10/21 07:44:47;;;;;;;9.27;2.50;;;14.90;99.90;;;;;;4989846;28;20572;-66
2023/10/21 07:47:13;;;;;;;8.60;1.67;;;14.90;99.90;;;;;;4989273;28;20034;-67
2023/10/21 07:49:38;;;;;;;8.00;1.37;;;14.90;99.90;;;;;;4989766;28;20053;-67
2023/10/21 07:52:04;;;;;;;6.87;1.10;;;14.90;99.90;;;;;;4989960;28;20034;-67
2023/10/21 07:54:30;;;;;;;3.78;1.23;;;15.20;99.90;;;;;;4989345;28;20030;-65
2023/10/21 07:56:56;;;;;;;12.87;1.30;;;16.00;99.90;;;;;;4989459;28;20117;-66
2023/10/21 07:59:22;;;;;;;6.13;1.20;;;15.90;97.50;;;;;;4989984;28;20038;-66
2023/10/21 08:01:47;;;;;;;4.43;0.82;;;15.50;99.90;;;;;;4990088;28;20042;-66
2023/10/21 08:04:13;;;;;;;3.28;1.10;;;15.50;99.90;;;;;;5013035;28;20038;-67
2023/10/21 08:06:39;;;;;;;13.63;1.37;;;15.60;97.10;;;;;;4988951;28;20042;-65
2023/10/21 08:09:05;;;;;;;14.30;1.70;;;15.50;99.90;;;;;;4989212;28;20037;-66
